Time;durP1;ratioP1;P1;durP2;ratioP2;P2;SDS_P1;SDS_P2;PMS_P1;PMS_P2;Temp;Humidity;BMP_temperature;BMP_pressure;BME280_temperature;BME280_humidity;BME280_pressure;Samples;Min_cycle;Max_cycle;Signal;HPM_P1;HPM_P2
2023/03/04 11:55:25;;;;;;;2.60;1.37;;;20.90;53.10;;;;;;4904050;29;20448;-96
2023/03/04 11:58:02;;;;;;;3.50;1.80;;;20.90;53.30;;;;;;4901852;29;20460;-95
2023/03/04 12:00:38;;;;;;;2.23;1.40;;;21.00;53.60;;;;;;4902685;29;20532;-96
2023/03/04 12:03:24;;;;;;;1.80;1.50;;;21.00;53.50;;;;;;4903714;29;20488;-96
2023/03/04 12:06:00;;;;;;;5.00;1.77;;;21.00;53.70;;;;;;4901043;29;20429;-96
2023/03/04 12:08:39;;;;;;;10.30;2.80;;;21.00;53.70;;;;;;4901645;29;20619;-95
2023/03/04 12:11:12;;;;;;;5.63;2.07;;;21.00;53.70;;;;;;4902879;29;20451;-95
2023/03/04 12:14:08;;;;;;;7.00;2.17;;;21.00;53.70;;;;;;4901696;29;20464;-96
2023/03/04 12:16:56;;;;;;;3.77;1.70;;;21.00;54.10;;;;;;4900797;29;20779;-92
2023/03/04 12:32:22;;;;;;;8.93;2.63;;;21.00;53.70;;;;;;4813967;29;20446;-92
2023/03/04 13:40:32;;;;;;;10.33;6.40;;;20.90;54.70;;;;;;4880121;29;20480;-85
2023/03/04 13:43:27;;;;;;;13.80;7.10;;;20.90;54.40;;;;;;4879488;29;20461;-85
2023/03/04 13:45:54;;;;;;;18.50;6.80;;;20.90;54.40;;;;;;4879467;29;20454;-86
2023/03/04 13:48:31;;;;;;;9.60;7.10;;;20.90;54.50;;;;;;4879424;29;20504;-93
2023/03/04 13:50:58;;;;;;;9.90;4.30;;;20.90;55.00;;;;;;4880929;29;20449;-85
2023/03/04 13:53:37;;;;;;;5.93;3.80;;;20.90;54.00;;;;;;4879240;29;20465;-85
2023/03/04 13:56:14;;;;;;;5.60;4.37;;;20.90;53.70;;;;;;4879159;29;20454;-88
2023/03/04 13:58:41;;;;;;;6.97;4.93;;;20.90;53.80;;;;;;4879594;29;20836;-88
2023/03/04 14:01:25;;;;;;;10.17;6.33;;;21.00;54.20;;;;;;4898081;29;20560;-90
2023/03/04 14:03:52;;;;;;;8.90;5.97;;;21.00;54.40;;;;;;4897970;29;20491;-89
2023/03/04 14:06:21;;;;;;;8.27;6.33;;;21.00;54.30;;;;;;4898553;29;20544;-92
2023/03/04 14:08:49;;;;;;;12.47;6.83;;;21.00;54.40;;;;;;4892252;29;20525;-88
2023/03/04 14:11:32;;;;;;;9.83;6.77;;;21.00;54.50;;;;;;4882011;29;20445;-85
2023/03/04 14:14:03;;;;;;;8.03;5.17;;;21.10;54.50;;;;;;4883168;29;20477;-85
2023/03/04 14:16:35;;;;;;;7.60;5.57;;;21.10;54.50;;;;;;4883089;29;20445;-85
2023/03/04 14:19:05;;;;;;;10.57;6.00;;;21.10;54.40;;;;;;4882851;29;20446;-84
2023/03/04 14:21:33;;;;;;;7.03;5.80;;;21.10;54.30;;;;;;4882580;29;20491;-85
2023/03/04 14:24:05;;;;;;;7.80;4.90;;;21.10;54.30;;;;;;4883056;29;20450;-84
2023/03/04 14:26:34;;;;;;;6.83;5.40;;;21.10;54.30;;;;;;4882661;29;20453;-84
2023/03/04 14:29:01;;;;;;;9.80;5.67;;;21.20;54.30;;;;;;4882889;29;20485;-85
2023/03/04 14:31:31;;;;;;;7.37;5.00;;;21.20;54.30;;;;;;4882760;29;20479;-85
2023/03/04 14:34:01;;;;;;;6.50;5.37;;;21.20;54.20;;;;;;4882599;29;20445;-84
2023/03/04 14:36:32;;;;;;;6.10;4.37;;;21.20;54.20;;;;;;4882584;29;20453;-90
2023/03/04 14:39:01;;;;;;;11.03;5.47;;;21.20;54.20;;;;;;4882378;29;20974;-91
2023/03/04 14:41:32;;;;;;;5.63;4.47;;;21.40;54.40;;;;;;4882382;29;20948;-87
2023/03/04 14:44:06;;;;;;;6.20;4.50;;;21.20;54.20;;;;;;4882936;29;20498;-86
2023/03/04 14:46:39;;;;;;;4.63;4.23;;;21.30;54.20;;;;;;4882384;29;20944;-89
2023/03/04 14:49:14;;;;;;;7.60;4.53;;;21.40;54.30;;;;;;4882202;29;20525;-91
2023/03/04 14:51:45;;;;;;;5.37;4.03;;;21.30;54.20;;;;;;4882361;29;20580;-87
2023/03/04 14:54:30;;;;;;;5.87;4.30;;;21.30;54.20;;;;;;4882339;29;20457;-86
2023/03/04 14:56:57;;;;;;;5.60;4.10;;;21.30;54.20;;;;;;4882408;29;20521;-87
2023/03/04 14:59:33;;;;;;;4.90;4.10;;;21.30;54.30;;;;;;4882074;29;20462;-87
2023/03/04 15:02:24;;;;;;;6.93;4.20;;;21.40;54.30;;;;;;4882267;29;20452;-86
2023/03/04 15:04:51;;;;;;;4.77;3.40;;;21.40;54.20;;;;;;4881998;29;20537;-86
2023/03/04 15:07:24;;;;;;;7.47;3.83;;;21.40;54.20;;;;;;4882316;29;20453;-87
2023/03/04 15:09:53;;;;;;;4.53;3.63;;;21.40;54.30;;;;;;4882042;29;20493;-87
2023/03/04 15:12:27;;;;;;;9.37;3.67;;;21.40;54.30;;;;;;4882036;29;20811;-86
2023/03/04 15:14:59;;;;;;;7.07;3.73;;;21.40;54.70;;;;;;4882269;29;20449;-87
2023/03/04 15:17:30;;;;;;;5.50;3.80;;;21.40;54.50;;;;;;4881706;29;20493;-86
2023/03/04 15:20:03;;;;;;;4.20;3.80;;;21.40;54.60;;;;;;4882077;29;20546;-86
2023/03/04 15:22:30;;;;;;;4.90;3.90;;;21.40;54.60;;;;;;4881734;29;20467;-87
2023/03/04 15:24:57;;;;;;;3.43;3.03;;;21.40;54.60;;;;;;4881653;29;20453;-87
2023/03/04 15:27:25;;;;;;;3.17;2.87;;;21.40;54.60;;;;;;4882073;29;20449;-86
2023/03/04 15:29:54;;;;;;;4.03;3.50;;;21.40;54.60;;;;;;4881799;29;20505;-87
2023/03/04 15:32:23;;;;;;;3.93;2.83;;;21.40;54.60;;;;;;4881594;29;20971;-87
2023/03/04 15:34:50;;;;;;;3.03;2.73;;;21.40;54.60;;;;;;4881481;29;20450;-87
2023/03/04 15:37:21;;;;;;;5.20;3.20;;;21.40;54.60;;;;;;4881673;29;20453;-86
2023/03/04 15:39:48;;;;;;;4.70;2.97;;;21.40;54.60;;;;;;4881415;29;20487;-86
2023/03/04 15:42:15;;;;;;;3.50;2.90;;;21.40;54.50;;;;;;4881505;29;20450;-87
2023/03/04 19:41:59;;;;;;;6.80;1.93;;;21.90;55.00;;;;;;5067207;23;20525;-93
2023/03/04 19:44:26;;;;;;;5.67;2.87;;;22.00;55.00;;;;;;4963111;29;20529;-96
2023/03/04 19:46:53;;;;;;;4.00;2.40;;;22.00;55.00;;;;;;4963137;29;20444;-92
2023/03/04 19:49:21;;;;;;;6.90;2.87;;;22.00;54.90;;;;;;4963180;29;20503;-94
2023/03/04 19:51:50;;;;;;;6.67;2.10;;;22.20;55.10;;;;;;4963427;29;20549;-92
2023/03/04 19:54:17;;;;;;;7.07;1.97;;;22.10;55.00;;;;;;4965892;29;20454;-95
2023/03/04 19:56:48;;;;;;;3.80;1.80;;;22.10;54.90;;;;;;4963733;29;20482;-95
2023/03/04 19:59:16;;;;;;;4.23;1.90;;;22.10;54.90;;;;;;4963261;29;20788;-93
2023/03/04 20:04:26;;;;;;;4.70;1.93;;;22.10;55.00;;;;;;4967128;29;20434;-96
2023/03/04 20:06:53;;;;;;;4.83;1.90;;;22.10;55.00;;;;;;4976937;28;20482;-93
2023/03/04 20:09:21;;;;;;;7.50;2.27;;;22.20;55.10;;;;;;4980919;28;20473;-93
2023/03/04 20:11:49;;;;;;;2.70;1.93;;;22.20;55.10;;;;;;4963942;29;20454;-95
2023/03/04 20:14:18;;;;;;;3.10;1.50;;;22.20;55.60;;;;;;4961739;29;20541;-94
2023/03/04 20:16:47;;;;;;;8.63;2.10;;;22.30;55.10;;;;;;4961912;29;20479;-94
2023/03/04 20:19:13;;;;;;;11.90;2.83;;;22.40;55.10;;;;;;4960371;29;20493;-93
2023/03/04 20:21:40;;;;;;;5.63;1.80;;;22.20;55.00;;;;;;4948719;29;20502;-94
2023/03/04 20:26:32;;;;;;;2.70;1.50;;;22.30;55.10;;;;;;4946403;23;20982;-93
2023/03/04 20:29:00;;;;;;;5.83;2.30;;;22.30;55.20;;;;;;4942002;29;20405;-94
2023/03/04 20:31:36;;;;;;;2.90;1.80;;;22.30;55.30;;;;;;4942984;29;20524;-96
2023/03/04 20:34:03;;;;;;;3.47;2.23;;;22.30;55.20;;;;;;4943433;29;20542;-95
2023/03/04 20:36:30;;;;;;;4.67;2.27;;;22.30;55.30;;;;;;4942736;29;20522;-95
2023/03/04 20:39:01;;;;;;;2.97;2.00;;;22.30;55.50;;;;;;4943153;29;20451;-95
2023/03/04 20:41:32;;;;;;;4.33;2.10;;;22.50;55.70;;;;;;4942574;29;20518;-94
2023/03/04 20:43:59;;;;;;;3.30;2.50;;;22.40;55.70;;;;;;4942404;29;20479;-94
2023/03/04 20:46:33;;;;;;;4.33;2.60;;;22.40;55.60;;;;;;4942016;29;20558;-93
2023/03/04 20:49:17;;;;;;;7.17;1.77;;;22.40;55.70;;;;;;4941775;29;20894;-91
2023/03/04 20:51:53;;;;;;;2.73;1.80;;;22.40;55.80;;;;;;4943401;29;20495;-96
2023/03/04 20:54:22;;;;;;;6.47;1.73;;;22.40;55.80;;;;;;4943265;29;20439;-95
2023/03/04 20:56:50;;;;;;;4.00;2.13;;;22.40;55.90;;;;;;4941795;29;20486;-94
2023/03/04 20:59:20;;;;;;;6.77;2.23;;;22.40;55.90;;;;;;4942357;29;20455;-95
2023/03/04 21:01:49;;;;;;;2.40;2.00;;;22.40;55.80;;;;;;4943585;29;20865;-94
2023/03/04 21:04:16;;;;;;;2.67;1.97;;;22.50;55.90;;;;;;4925023;29;20977;-95
2023/03/04 21:06:44;;;;;;;3.57;2.00;;;22.40;55.70;;;;;;4941380;29;20529;-96
2023/03/04 21:09:21;;;;;;;2.57;1.40;;;22.40;55.70;;;;;;4944763;29;20535;-96
2023/03/04 21:11:52;;;;;;;2.40;1.80;;;22.40;55.70;;;;;;4967649;23;20545;-95
2023/03/04 21:14:29;;;;;;;4.63;2.27;;;22.40;55.70;;;;;;4941654;29;20461;-92
2023/03/04 21:17:14;;;;;;;2.90;1.80;;;22.40;55.70;;;;;;4941666;29;20457;-93
2023/03/04 21:19:43;;;;;;;4.77;2.47;;;22.40;55.70;;;;;;4925082;29;20447;-93
2023/03/04 21:22:14;;;;;;;3.80;1.77;;;22.40;55.70;;;;;;4942430;29;20471;-93
2023/03/04 21:27:27;;;;;;;2.17;1.47;;;22.40;55.80;;;;;;4941208;29;20420;-94
2023/03/04 21:29:56;;;;;;;3.77;2.07;;;22.40;55.60;;;;;;4941044;29;20542;-90
2023/03/04 21:32:27;;;;;;;2.83;1.60;;;22.40;55.70;;;;;;4941977;29;20471;-93
2023/03/04 21:35:31;;;;;;;2.40;1.63;;;22.50;55.80;;;;;;4941324;29;20452;-93
2023/03/04 21:37:58;;;;;;;5.23;2.23;;;22.50;55.80;;;;;;4941114;29;20484;-91
2023/03/04 21:40:29;;;;;;;3.57;2.13;;;22.40;55.80;;;;;;4940895;29;20535;-94
2023/03/04 21:42:56;;;;;;;2.40;1.73;;;22.40;55.70;;;;;;4940500;29;20442;-94
2023/03/04 21:45:31;;;;;;;5.10;1.80;;;22.40;55.70;;;;;;4939500;29;20877;-94
2023/03/04 21:48:01;;;;;;;2.33;1.90;;;22.40;55.70;;;;;;4938206;29;20451;-96
2023/03/04 21:50:33;;;;;;;5.10;1.47;;;22.40;55.70;;;;;;4947678;23;20577;-94
2023/03/04 21:53:03;;;;;;;5.13;2.00;;;22.40;55.70;;;;;;4917570;29;20464;-96
2023/03/04 21:55:32;;;;;;;2.27;2.07;;;22.40;55.60;;;;;;4918004;29;20464;-95
2023/03/04 21:58:02;;;;;;;1.97;1.50;;;22.40;55.60;;;;;;4918875;29;20486;-93
2023/03/04 22:00:31;;;;;;;2.27;1.80;;;22.40;55.60;;;;;;4918898;29;20507;-94
2023/03/04 22:03:00;;;;;;;3.63;2.17;;;22.40;55.50;;;;;;4919514;29;20798;-93
2023/03/04 22:05:32;;;;;;;3.40;1.40;;;22.40;55.60;;;;;;4918707;29;20440;-94
2023/03/04 22:08:02;;;;;;;2.27;2.07;;;22.20;55.40;;;;;;4919152;29;20455;-93
2023/03/04 22:10:32;;;;;;;3.10;1.40;;;22.40;55.60;;;;;;4918291;29;20523;-93
2023/03/04 22:13:07;;;;;;;3.77;1.43;;;22.30;55.50;;;;;;4918855;29;20463;-94
2023/03/04 22:15:36;;;;;;;6.67;2.00;;;22.30;55.60;;;;;;4919116;29;20461;-91
2023/03/04 22:18:08;;;;;;;4.53;1.40;;;22.30;55.50;;;;;;4919039;29;20463;-91
2023/03/04 22:20:40;;;;;;;2.00;1.40;;;22.50;55.70;;;;;;4919413;29;20894;-92
2023/03/04 22:23:10;;;;;;;3.83;1.27;;;22.30;55.50;;;;;;4919695;29;20451;-92
2023/03/04 22:25:41;;;;;;;2.17;1.47;;;22.30;55.50;;;;;;4920387;29;20459;-92
2023/03/04 22:28:08;;;;;;;1.83;1.43;;;22.30;55.40;;;;;;4923389;29;20499;-92
2023/03/04 22:30:41;;;;;;;3.63;1.87;;;22.30;55.40;;;;;;4939189;29;20485;-92
2023/03/04 22:35:55;;;;;;;1.60;1.40;;;22.30;55.40;;;;;;4937166;29;20507;-92
2023/03/04 22:38:25;;;;;;;1.70;1.47;;;22.40;55.40;;;;;;4923943;29;20538;-92
2023/03/04 22:40:54;;;;;;;1.70;1.30;;;22.30;55.30;;;;;;4923759;29;20961;-92
2023/03/04 22:43:24;;;;;;;2.80;1.30;;;22.50;56.00;;;;;;4940742;29;20499;-92
2023/03/04 22:45:58;;;;;;;1.80;1.40;;;22.30;55.30;;;;;;4937975;29;20496;-93
2023/03/04 22:48:26;;;;;;;2.40;1.73;;;22.30;55.30;;;;;;4921865;29;20496;-92
2023/03/04 22:50:56;;;;;;;1.60;1.30;;;22.30;55.30;;;;;;4921993;29;20503;-94
2023/03/04 22:53:26;;;;;;;2.07;1.47;;;22.30;55.80;;;;;;4921755;29;20542;-94
2023/03/04 22:56:01;;;;;;;2.33;1.47;;;22.30;55.20;;;;;;4921908;29;20983;-94
2023/03/04 22:58:29;;;;;;;2.67;1.70;;;22.30;54.80;;;;;;4921351;29;20436;-94
2023/03/04 23:01:03;;;;;;;2.70;1.63;;;22.30;54.80;;;;;;4920382;29;20490;-95
2023/03/04 23:03:36;;;;;;;2.80;1.33;;;22.40;54.90;;;;;;4921027;29;20470;-96
2023/03/04 23:06:08;;;;;;;2.07;1.30;;;22.20;55.00;;;;;;4921216;29;20458;-95
2023/03/04 23:08:45;;;;;;;1.80;1.40;;;22.20;55.00;;;;;;4920809;29;20479;-95
2023/03/04 23:11:15;;;;;;;3.67;1.20;;;22.20;55.00;;;;;;4920132;29;20472;-95
2023/03/04 23:13:44;;;;;;;2.00;1.27;;;22.20;55.00;;;;;;4920656;29;20479;-95
2023/03/04 23:16:12;;;;;;;4.37;1.50;;;22.20;55.00;;;;;;4920561;29;20448;-95
2023/03/04 23:18:45;;;;;;;1.70;1.30;;;22.20;55.00;;;;;;4919986;29;20547;-94
2023/03/04 23:21:15;;;;;;;2.63;1.50;;;22.20;54.90;;;;;;4920956;29;20555;-94
2023/03/04 23:23:43;;;;;;;1.43;1.33;;;22.10;54.80;;;;;;4920191;29;20428;-95
2023/03/04 23:26:19;;;;;;;4.20;1.50;;;22.10;54.80;;;;;;4920404;29;20459;-94
2023/03/04 23:28:49;;;;;;;1.60;1.07;;;22.20;54.90;;;;;;4921030;29;20455;-94
2023/03/04 23:31:16;;;;;;;1.67;1.50;;;22.10;54.80;;;;;;4919731;29;20879;-95
2023/03/04 23:33:48;;;;;;;2.33;1.30;;;22.10;54.70;;;;;;4919986;29;20471;-95
2023/03/04 23:36:19;;;;;;;2.07;1.73;;;22.10;54.70;;;;;;4919933;29;20571;-95
2023/03/04 23:38:49;;;;;;;1.93;1.37;;;22.30;54.80;;;;;;4920006;29;20498;-94
2023/03/04 23:41:37;;;;;;;2.10;1.30;;;22.10;54.70;;;;;;4920571;29;20458;-95
2023/03/04 23:44:05;;;;;;;3.23;1.20;;;22.10;54.70;;;;;;4920534;29;20525;-95
2023/03/04 23:46:33;;;;;;;2.67;1.43;;;22.10;54.60;;;;;;4920987;29;20821;-93
2023/03/04 23:49:01;;;;;;;1.50;1.10;;;22.10;54.70;;;;;;4919885;29;20452;-94
2023/03/04 23:51:29;;;;;;;3.30;1.27;;;22.10;55.20;;;;;;4920702;29;20492;-96
2023/03/04 23:53:56;;;;;;;1.13;1.00;;;22.10;54.50;;;;;;4920119;29;20464;-93
2023/03/04 23:56:25;;;;;;;2.37;1.40;;;22.00;54.60;;;;;;4919546;29;20455;-94
2023/03/04 23:58:53;;;;;;;2.23;1.47;;;22.20;54.70;;;;;;4920107;29;20460;-94
